createdAt,value
2018-02-07T00:01:03.017Z,20.13
2018-02-07T00:04:04.438Z,20.23
2018-02-07T00:07:06.655Z,18.97
2018-02-07T00:10:08.055Z,20.30
2018-02-07T00:13:09.549Z,18.20
2018-02-07T00:16:11.001Z,18.23
2018-02-07T00:19:12.471Z,18.13
2018-02-07T00:22:13.926Z,19.23
2018-02-07T00:25:15.324Z,19.93
2018-02-07T00:28:17.493Z,17.40
2018-02-07T00:31:19.633Z,18.33
2018-02-07T00:34:21.136Z,17.57
2018-02-07T00:37:22.656Z,18.47
2018-02-07T00:40:24.151Z,18.50
2018-02-07T00:43:25.616Z,19.47
2018-02-07T00:46:27.156Z,18.40
2018-02-07T00:49:28.586Z,18.43
2018-02-07T00:52:30.055Z,18.40
2018-02-07T00:55:35.505Z,17.13
2018-02-07T00:58:37.728Z,20.77
2018-02-07T01:01:39.153Z,18.50
2018-02-07T01:04:40.502Z,18.40
2018-02-07T01:07:41.890Z,18.27
2018-02-07T01:10:43.314Z,19.03
2018-02-07T01:13:45.619Z,19.47
2018-02-07T01:16:47.816Z,19.27
2018-02-07T01:19:49.938Z,19.23
2018-02-07T01:22:51.297Z,18.30
2018-02-07T01:25:53.413Z,18.90
2018-02-07T01:28:54.776Z,18.97
2018-02-07T01:31:56.909Z,17.80
2018-02-07T01:34:58.303Z,19.90
2018-02-07T01:37:59.737Z,18.47
2018-02-07T01:41:02.235Z,19.73
2018-02-07T01:44:04.361Z,18.10
2018-02-07T01:47:06.517Z,18.93
2018-02-07T01:50:07.893Z,17.90
2018-02-07T01:53:09.308Z,18.57
2018-02-07T01:56:10.704Z,18.93
2018-02-07T01:59:12.823Z,18.70
2018-02-07T02:02:14.226Z,19.13
2018-02-07T02:05:15.549Z,18.17
2018-02-07T02:08:17.724Z,19.53
2018-02-07T02:11:19.126Z,19.80
2018-02-07T02:14:21.239Z,17.80
2018-02-07T02:17:23.383Z,21.10
2018-02-07T02:20:24.750Z,18.67
2018-02-07T02:23:26.132Z,19.87
2018-02-07T02:26:27.500Z,18.60
2018-02-07T02:29:28.861Z,18.63
2018-02-07T02:32:30.989Z,18.30
2018-02-07T02:35:32.410Z,20.07
2018-02-07T02:38:33.779Z,18.83
2018-02-07T02:41:35.184Z,21.93
2018-02-07T02:44:36.564Z,20.30
2018-02-07T02:47:37.942Z,21.27
2018-02-07T02:50:39.337Z,20.10
2018-02-07T02:53:41.482Z,20.10
2018-02-07T02:56:42.889Z,22.03
2018-02-07T02:59:44.294Z,21.20
2018-02-07T03:02:45.673Z,21.00
2018-02-07T03:05:47.077Z,20.23
2018-02-07T03:08:48.423Z,23.23
2018-02-07T03:11:49.825Z,21.10
2018-02-07T03:14:51.944Z,20.80
2018-02-07T03:17:53.376Z,21.87
2018-02-07T03:20:55.517Z,21.33
2018-02-07T03:23:57.644Z,22.40
2018-02-07T03:26:59.089Z,23.93
2018-02-07T03:30:01.232Z,22.50
2018-02-07T03:33:02.600Z,22.33
2018-02-07T03:36:04.012Z,21.13
2018-02-07T03:39:05.472Z,20.60
2018-02-07T03:42:06.834Z,21.10
2018-02-07T03:45:09.130Z,23.90
2018-02-07T03:48:11.228Z,21.80
2018-02-07T03:51:13.349Z,21.00
2018-02-07T03:54:14.725Z,20.80
2018-02-07T03:57:16.116Z,20.20
2018-02-07T04:00:17.486Z,22.20
2018-02-07T04:03:18.853Z,23.70
2018-02-07T04:06:20.963Z,26.00
2018-02-07T04:09:22.302Z,23.47
2018-02-07T04:12:23.698Z,24.73
2018-02-07T04:15:25.794Z,24.40
2018-02-07T04:18:27.938Z,23.13
2018-02-07T04:21:29.333Z,24.27
2018-02-07T04:24:30.674Z,23.57
2018-02-07T04:27:32.066Z,24.47
2018-02-07T04:30:33.445Z,22.50
2018-02-07T04:33:34.820Z,21.93
2018-02-07T04:36:36.191Z,22.50
2018-02-07T04:39:38.349Z,23.70
2018-02-07T04:42:39.762Z,23.37
2018-02-07T04:45:41.867Z,26.40
2018-02-07T04:48:43.980Z,24.13
2018-02-07T04:51:45.434Z,25.07
2018-02-07T04:54:47.506Z,25.20
2018-02-07T04:57:48.869Z,24.80
2018-02-07T05:00:50.214Z,22.47
2018-02-07T05:03:52.312Z,24.43
2018-02-07T05:06:54.449Z,25.67
2018-02-07T05:09:55.842Z,25.13
2018-02-07T05:12:57.202Z,24.17
2018-02-07T05:15:58.576Z,23.37
2018-02-07T05:18:59.944Z,24.20
2018-02-07T05:22:02.085Z,26.00
2018-02-07T05:25:03.454Z,25.20
2018-02-07T05:28:04.892Z,27.43
2018-02-07T05:31:07.003Z,24.50
2018-02-07T05:34:08.394Z,25.03
2018-02-07T05:37:09.784Z,24.67
2018-02-07T05:40:11.220Z,25.63
2018-02-07T05:43:12.613Z,24.57
2018-02-07T05:46:14.740Z,26.27
2018-02-07T05:49:16.120Z,25.30
2018-02-07T05:52:17.564Z,24.70
2018-02-07T05:55:18.940Z,25.37
2018-02-07T05:58:20.333Z,24.73
2018-02-07T06:01:22.464Z,26.57
2018-02-07T06:04:23.817Z,26.93
2018-02-07T06:07:25.989Z,26.20
2018-02-07T06:10:27.342Z,24.20
2018-02-07T06:13:28.729Z,24.67
2018-02-07T06:16:30.070Z,24.40
2018-02-07T06:19:32.247Z,23.67
2018-02-07T06:22:33.668Z,25.27
2018-02-07T06:25:35.064Z,23.93
2018-02-07T06:28:36.478Z,24.93
2018-02-07T06:31:37.894Z,25.30
2018-02-07T06:34:39.990Z,25.50
2018-02-07T06:37:42.122Z,26.03
2018-02-07T06:40:43.510Z,25.60
2018-02-07T06:43:44.937Z,25.30
2018-02-07T06:46:46.318Z,24.80
2018-02-07T06:49:47.652Z,24.30
2018-02-07T06:52:49.035Z,28.77
2018-02-07T06:55:50.438Z,25.23
2018-02-07T06:58:51.860Z,24.87
2018-02-07T07:01:53.970Z,26.00
2018-02-07T07:04:55.521Z,24.27
2018-02-07T07:07:56.881Z,24.17
2018-02-07T07:10:58.258Z,25.80
2018-02-07T07:13:59.634Z,26.17
2018-02-07T07:17:01.022Z,23.60
2018-02-07T07:20:02.474Z,26.40
2018-02-07T07:23:03.835Z,23.97
2018-02-07T07:26:05.990Z,24.87
2018-02-07T07:29:07.391Z,24.13
2018-02-07T07:32:08.806Z,24.70
2018-02-07T07:35:10.210Z,27.50
2018-02-07T07:38:11.554Z,27.20
2018-02-07T07:41:13.667Z,25.90
2018-02-07T07:44:14.993Z,25.50
2018-02-07T07:47:16.460Z,26.90
2018-02-07T07:50:17.834Z,25.17
2018-02-07T07:53:19.248Z,24.70
2018-02-07T07:56:20.677Z,26.27
2018-02-07T07:59:22.057Z,27.50
2018-02-07T08:02:23.436Z,25.57
2018-02-07T08:05:24.866Z,28.47
2018-02-07T08:08:26.256Z,27.80
2018-02-07T08:11:27.592Z,28.63
2018-02-07T08:14:28.990Z,27.27
2018-02-07T08:17:30.322Z,26.47
2018-02-07T08:23:40.565Z,27.57
2018-02-07T08:26:42.650Z,29.20
2018-02-07T08:29:44.021Z,27.40
2018-02-07T08:32:45.404Z,27.87
2018-02-07T08:35:46.734Z,27.07
2018-02-07T08:38:48.076Z,28.40
2018-02-07T08:41:49.443Z,29.10
2018-02-07T08:44:50.966Z,28.17
2018-02-07T08:47:53.066Z,29.20
2018-02-07T08:50:54.408Z,28.07
2018-02-07T08:53:55.770Z,28.40
2018-02-07T08:56:57.234Z,27.70
2018-02-07T08:59:58.781Z,27.20
2018-02-07T09:03:00.959Z,26.17
2018-02-07T09:06:02.385Z,29.47
2018-02-07T09:09:03.792Z,27.83
2018-02-07T09:12:05.145Z,27.93
2018-02-07T09:15:07.614Z,27.67
2018-02-07T09:18:08.974Z,30.50
2018-02-07T09:21:10.322Z,27.37
2018-02-07T09:24:11.656Z,28.03
2018-02-07T09:27:13.002Z,28.77
2018-02-07T09:30:14.578Z,27.40
2018-02-07T09:33:16.726Z,27.80
2018-02-07T09:36:18.081Z,29.37
2018-02-07T09:39:19.413Z,28.57
2018-02-07T09:42:20.781Z,28.60
2018-02-07T09:45:22.872Z,28.80
2018-02-07T09:48:24.964Z,28.07
2018-02-07T09:51:26.291Z,26.07
2018-02-07T09:54:27.720Z,28.00
2018-02-07T09:57:29.092Z,29.93
2018-02-07T10:00:30.468Z,28.70
2018-02-07T10:03:31.834Z,27.53
2018-02-07T10:06:33.246Z,29.50
2018-02-07T10:09:34.568Z,29.53
2018-02-07T10:12:35.954Z,28.07
2018-02-07T10:15:37.360Z,30.70
2018-02-07T10:18:38.701Z,31.20
2018-02-07T10:21:40.120Z,29.67
2018-02-07T10:24:41.478Z,28.63
2018-02-07T10:27:42.844Z,29.33
2018-02-07T10:30:44.205Z,29.27
2018-02-07T10:33:46.380Z,30.07
2018-02-07T10:36:47.774Z,28.27
2018-02-07T10:39:49.153Z,28.43
2018-02-07T10:42:50.531Z,28.70
2018-02-07T10:45:51.887Z,28.00
2018-02-07T10:48:53.232Z,26.67
2018-02-07T10:51:54.576Z,27.73
2018-02-07T10:54:55.933Z,28.80
2018-02-07T10:58:04.292Z,28.70
2018-02-07T11:01:05.667Z,28.20
2018-02-07T11:04:07.033Z,27.10
2018-02-07T11:07:08.459Z,28.00
2018-02-07T11:10:09.844Z,29.83
2018-02-07T11:13:11.957Z,29.93
2018-02-07T11:16:13.329Z,31.97
2018-02-07T11:19:15.393Z,28.80
2018-02-07T11:22:16.754Z,31.17
2018-02-07T11:25:18.157Z,29.57
2018-02-07T11:28:19.517Z,30.60
2018-02-07T11:31:20.917Z,29.10
2018-02-07T11:34:22.309Z,28.90
2018-02-07T11:37:23.717Z,27.27
2018-02-07T11:40:25.802Z,28.40
2018-02-07T11:43:27.976Z,29.17
2018-02-07T11:46:29.380Z,30.77
2018-02-07T11:49:30.796Z,29.90
2018-02-07T11:52:32.237Z,28.90
2018-02-07T11:55:33.646Z,26.27
2018-02-07T11:58:35.754Z,26.73
2018-02-07T12:01:37.162Z,27.80
2018-02-07T12:04:38.558Z,27.40
2018-02-07T12:07:39.903Z,28.07
2018-02-07T12:10:41.285Z,29.73
2018-02-07T12:13:42.642Z,26.90
2018-02-07T12:16:44.763Z,29.13
2018-02-07T12:19:46.121Z,28.73
2018-02-07T12:22:48.228Z,29.60
2018-02-07T12:25:50.302Z,27.30
2018-02-07T12:28:52.441Z,29.00
2018-02-07T12:31:53.799Z,29.63
2018-02-07T12:34:55.956Z,30.37
2018-02-07T12:37:58.080Z,29.83
2018-02-07T12:40:59.405Z,28.33
2018-02-07T12:44:00.722Z,28.90
2018-02-07T12:47:02.145Z,26.80
2018-02-07T12:50:04.253Z,32.03
2018-02-07T12:53:05.766Z,27.97
2018-02-07T12:56:07.188Z,29.13
2018-02-07T12:59:08.759Z,28.67
2018-02-07T13:02:10.261Z,31.30
2018-02-07T13:05:12.328Z,30.90
2018-02-07T13:08:14.664Z,30.00
2018-02-07T13:11:16.768Z,28.47
2018-02-07T13:14:18.877Z,31.93
2018-02-07T13:17:20.190Z,29.40
2018-02-07T13:20:21.470Z,30.13
2018-02-07T13:23:22.791Z,29.47
2018-02-07T13:26:24.094Z,30.53
2018-02-07T13:29:25.420Z,30.17
2018-02-07T13:32:26.827Z,28.00
2018-02-07T13:35:28.219Z,28.53
2018-02-07T13:38:29.578Z,29.03
2018-02-07T13:41:31.645Z,28.10
2018-02-07T13:44:33.003Z,25.40
2018-02-07T13:47:34.294Z,28.60
2018-02-07T13:50:35.589Z,30.33
2018-02-07T13:53:36.901Z,28.27
2018-02-07T13:56:38.376Z,28.03
2018-02-07T13:59:39.666Z,27.97
2018-02-07T14:02:40.973Z,28.63
2018-02-07T14:05:42.330Z,29.00
2018-02-07T14:08:43.627Z,27.67
2018-02-07T14:11:44.950Z,29.87
2018-02-07T14:14:47.000Z,27.30
2018-02-07T14:17:48.347Z,28.30
2018-02-07T14:20:49.640Z,27.73
2018-02-07T14:23:51.046Z,27.40
2018-02-07T14:26:52.386Z,26.83
2018-02-07T14:29:53.699Z,27.00
2018-02-07T14:32:55.047Z,25.23
2018-02-07T14:35:56.362Z,25.70
2018-02-07T14:38:57.758Z,24.90
2018-02-07T14:41:59.052Z,25.13
2018-02-07T14:45:01.142Z,24.37
2018-02-07T14:48:02.474Z,23.00
2018-02-07T14:51:03.784Z,24.07
2018-02-07T14:54:05.123Z,24.97
2018-02-07T14:57:13.626Z,24.03
2018-02-07T15:00:14.969Z,24.03
2018-02-07T15:03:16.321Z,23.77
2018-02-07T15:06:18.374Z,23.90
2018-02-07T15:09:19.701Z,24.47
2018-02-07T15:12:21.914Z,23.00
2018-02-07T15:15:23.253Z,22.27
2018-02-07T15:18:25.355Z,23.53
2018-02-07T15:21:27.426Z,23.67
2018-02-07T15:24:28.782Z,22.60
2018-02-07T15:27:30.105Z,24.50
2018-02-07T15:30:31.415Z,23.80
2018-02-07T15:33:32.776Z,23.67
2018-02-07T15:36:34.811Z,22.57
2018-02-07T15:39:36.129Z,23.20
2018-02-07T15:42:37.470Z,23.97
2018-02-07T15:45:38.787Z,21.77
2018-02-07T15:48:40.105Z,24.50
2018-02-07T15:51:42.185Z,22.57
2018-02-07T15:54:44.262Z,24.30
2018-02-07T15:57:45.610Z,25.20
2018-02-07T16:00:46.943Z,24.23
2018-02-07T16:03:48.244Z,24.90
2018-02-07T16:06:50.313Z,24.40
2018-02-07T16:09:51.634Z,24.23
2018-02-07T16:12:52.972Z,25.17
2018-02-07T16:15:54.303Z,25.80
2018-02-07T16:18:55.662Z,24.87
2018-02-07T16:21:57.737Z,23.03
2018-02-07T16:24:59.134Z,25.07
2018-02-07T16:28:01.274Z,23.27
2018-02-07T16:31:02.611Z,25.60
2018-02-07T16:34:04.806Z,28.13
2018-02-07T16:37:06.156Z,27.20
2018-02-07T16:40:07.454Z,25.13
2018-02-07T16:43:08.760Z,22.47
2018-02-07T16:46:10.844Z,23.70
2018-02-07T16:49:12.901Z,26.20
2018-02-07T16:52:14.218Z,22.20
2018-02-07T16:55:15.543Z,22.43
2018-02-07T16:58:16.930Z,24.70
2018-02-07T17:01:18.289Z,22.30
2018-02-07T17:04:19.604Z,23.50
2018-02-07T17:07:20.953Z,22.87
2018-02-07T17:10:22.299Z,22.57
2018-02-07T17:13:23.619Z,24.37
2018-02-07T17:16:24.988Z,22.37
2018-02-07T17:19:26.384Z,22.50
2018-02-07T17:22:28.425Z,22.40
2018-02-07T17:25:29.759Z,22.63
2018-02-07T17:28:31.097Z,21.27
2018-02-07T17:31:32.452Z,19.73
2018-02-07T17:34:33.886Z,21.60
2018-02-07T17:37:35.236Z,25.50
2018-02-07T17:40:37.304Z,35.57
2018-02-07T17:43:38.655Z,23.93
2018-02-07T17:46:39.985Z,25.80
2018-02-07T17:49:41.285Z,20.80
2018-02-07T17:52:43.345Z,26.40
2018-02-07T17:55:44.682Z,36.80
2018-02-07T17:58:46.004Z,25.60
2018-02-07T18:01:47.332Z,29.27
2018-02-07T18:04:48.679Z,22.27
2018-02-07T18:07:50.060Z,20.87
2018-02-07T18:10:51.356Z,24.57
2018-02-07T18:13:52.735Z,22.93
2018-02-07T18:16:54.086Z,25.60
2018-02-07T18:19:55.460Z,32.77
2018-02-07T18:22:56.980Z,23.03
2018-02-07T18:25:58.909Z,22.87
2018-02-07T18:29:00.400Z,23.23
2018-02-07T18:32:02.096Z,20.53
2018-02-07T18:35:03.721Z,22.30
2018-02-07T18:38:05.162Z,20.40
2018-02-07T18:41:06.527Z,20.97
2018-02-07T18:44:07.925Z,20.03
2018-02-07T18:47:09.368Z,20.40
2018-02-07T18:50:11.574Z,20.60
2018-02-07T18:53:13.817Z,20.07
2018-02-07T18:59:23.368Z,20.40
2018-02-07T19:02:24.784Z,20.57
2018-02-07T19:05:26.912Z,20.77
2018-02-07T19:08:28.320Z,22.67
2018-02-07T19:11:29.710Z,22.13
2018-02-07T19:14:31.084Z,19.50
2018-02-07T19:17:33.332Z,19.80
2018-02-07T19:20:35.630Z,21.40
2018-02-07T19:23:37.880Z,19.40
2018-02-07T19:26:39.278Z,19.27
2018-02-07T19:29:40.759Z,19.60
2018-02-07T19:32:42.280Z,20.50
2018-02-07T19:35:44.473Z,19.83
2018-02-07T19:38:46.636Z,20.00
2018-02-07T19:41:48.041Z,19.93
2018-02-07T19:44:49.538Z,18.70
2018-02-07T19:47:51.033Z,18.80
2018-02-07T19:50:53.327Z,19.50
2018-02-07T19:53:54.799Z,19.90
2018-02-07T19:56:56.394Z,19.90
2018-02-07T19:59:57.910Z,20.67
2018-02-07T20:02:59.518Z,19.57
2018-02-07T20:06:01.059Z,18.60
2018-02-07T20:09:03.297Z,19.30
2018-02-07T20:12:04.738Z,21.90
2018-02-07T20:15:06.886Z,20.27
2018-02-07T20:18:08.599Z,18.70
2018-02-07T20:21:09.970Z,20.27
2018-02-07T20:24:11.529Z,19.43
2018-02-07T20:27:12.915Z,20.63
2018-02-07T20:30:14.263Z,19.97
2018-02-07T20:33:16.408Z,20.40
2018-02-07T20:36:18.050Z,19.63
2018-02-07T20:39:20.332Z,21.50
2018-02-07T20:42:21.890Z,20.73
2018-02-07T20:45:23.403Z,46.00
2018-02-07T20:48:25.569Z,23.77
2018-02-07T20:51:27.035Z,21.53
2018-02-07T20:54:28.536Z,20.00
2018-02-07T20:57:29.942Z,20.00
2018-02-07T21:00:31.373Z,20.87
2018-02-07T21:03:33.736Z,19.63
2018-02-07T21:12:11.189Z,18.80
2018-02-07T21:15:12.893Z,20.40
2018-02-07T21:18:14.422Z,26.13
2018-02-07T21:21:17.676Z,20.13
2018-02-07T21:24:19.908Z,20.13
2018-02-07T21:27:21.323Z,20.17
2018-02-07T21:30:22.779Z,19.10
2018-02-07T21:33:24.402Z,19.70
2018-02-07T21:36:25.738Z,20.57
2018-02-07T21:42:36.796Z,20.27
2018-02-07T21:45:38.242Z,19.90
2018-02-07T21:48:40.441Z,19.00
2018-02-07T21:51:42.263Z,18.50
2018-02-07T21:54:43.748Z,19.17
2018-02-07T21:57:45.203Z,20.77
2018-02-07T22:00:46.585Z,20.13
2018-02-07T22:03:48.732Z,20.40
2018-02-07T22:06:50.152Z,20.40
2018-02-07T22:09:51.768Z,19.60
2018-02-07T22:12:53.583Z,20.80
2018-02-07T22:15:55.078Z,21.47
2018-02-07T22:18:56.401Z,18.50
2018-02-07T22:21:58.550Z,20.70
2018-02-07T22:24:59.864Z,20.90
2018-02-07T22:28:01.896Z,21.73
2018-02-07T22:31:03.296Z,19.77
2018-02-07T22:34:04.695Z,20.90
2018-02-07T22:37:06.774Z,18.43
2018-02-07T22:40:08.517Z,19.27
2018-02-07T22:43:10.612Z,19.77
2018-02-07T22:46:11.955Z,20.90
2018-02-07T22:49:13.295Z,19.27
2018-02-07T22:52:15.355Z,20.23
2018-02-07T22:55:19.544Z,19.37
2018-02-07T22:58:21.658Z,21.60
2018-02-07T23:01:23.007Z,21.07
2018-02-07T23:04:24.326Z,20.27
2018-02-07T23:07:25.734Z,20.63
2018-02-07T23:10:27.057Z,19.73
2018-02-07T23:13:29.153Z,18.10
2018-02-07T23:16:31.257Z,19.60
2018-02-07T23:19:33.341Z,20.13
2018-02-07T23:22:35.427Z,20.63
2018-02-07T23:25:36.762Z,19.83
2018-02-07T23:28:38.136Z,19.77
2018-02-07T23:31:39.510Z,19.30
2018-02-07T23:34:40.888Z,19.27
2018-02-07T23:37:42.216Z,18.63
2018-02-07T23:40:43.544Z,19.00
2018-02-07T23:43:44.907Z,20.27
2018-02-07T23:46:46.967Z,19.17
2018-02-07T23:49:48.297Z,19.03
2018-02-07T23:52:50.383Z,19.70
2018-02-07T23:55:51.745Z,19.00
2018-02-07T23:58:53.047Z,20.20
